Time;durP1;ratioP1;P1;durP2;ratioP2;P2;SDS_P1;SDS_P2;PMS_P1;PMS_P2;Temp;Humidity;BMP_temperature;BMP_pressure;BME280_temperature;BME280_humidity;BME280_pressure;Samples;Min_cycle;Max_cycle;Signal;HPM_P1;HPM_P2
2023/11/24 00:01:39;;;;;;;9.97;1.87;;;8.10;99.90;;;;;;6188638;23;20435;-62
2023/11/24 00:04:07;;;;;;;2.97;1.23;;;8.10;99.90;;;;;;6189041;23;20440;-62
2023/11/24 00:06:34;;;;;;;4.90;1.40;;;8.00;99.90;;;;;;6188613;23;20433;-62
2023/11/24 00:09:01;;;;;;;4.30;2.00;;;8.00;99.90;;;;;;6188391;23;20517;-62
2023/11/24 00:11:28;;;;;;;9.40;1.80;;;8.00;99.90;;;;;;6188240;23;20542;-62
2023/11/24 00:13:55;;;;;;;3.97;1.47;;;8.00;99.90;;;;;;6188648;23;20432;-62
2023/11/24 00:16:22;;;;;;;5.07;1.70;;;7.90;99.90;;;;;;6188917;23;20504;-60
2023/11/24 00:18:49;;;;;;;7.13;2.37;;;7.90;99.90;;;;;;6188476;23;20469;-62
2023/11/24 00:21:17;;;;;;;6.60;1.60;;;7.90;99.90;;;;;;6188438;23;20425;-61
2023/11/24 00:23:45;;;;;;;6.13;1.80;;;7.90;99.90;;;;;;6188870;23;20424;-62
2023/11/24 00:26:12;;;;;;;1.60;0.90;;;7.90;99.90;;;;;;6188744;23;20428;-61
2023/11/24 00:28:39;;;;;;;8.23;2.50;;;7.90;99.90;;;;;;6188713;23;20404;-61
2023/11/24 00:31:07;;;;;;;9.67;2.20;;;7.80;99.90;;;;;;6188343;23;20499;-62
2023/11/24 00:33:35;;;;;;;6.23;1.70;;;7.80;99.90;;;;;;6188820;23;20758;-62
2023/11/24 00:36:02;;;;;;;8.20;2.37;;;7.80;99.90;;;;;;6188629;23;20421;-61
2023/11/24 00:38:31;;;;;;;8.20;1.50;;;7.80;99.90;;;;;;6188406;23;20484;-61
2023/11/24 00:40:58;;;;;;;7.53;1.97;;;7.80;99.90;;;;;;6188555;23;20487;-62
2023/11/24 00:43:26;;;;;;;10.97;2.10;;;7.80;99.90;;;;;;6188305;23;20467;-61
2023/11/24 00:45:53;;;;;;;6.90;2.00;;;7.80;99.90;;;;;;6188187;23;20734;-62
2023/11/24 00:48:22;;;;;;;5.47;2.00;;;7.70;99.90;;;;;;6188607;23;20447;-62
2023/11/24 00:50:50;;;;;;;8.70;1.67;;;7.70;99.90;;;;;;6187997;23;20448;-61
2023/11/24 00:53:17;;;;;;;2.77;1.00;;;7.70;99.90;;;;;;6188634;23;20456;-63
2023/11/24 00:55:45;;;;;;;15.03;3.37;;;7.70;99.90;;;;;;6188502;23;20459;-62
2023/11/24 00:58:12;;;;;;;10.40;1.53;;;7.60;99.90;;;;;;6188184;23;20882;-62
2023/11/24 01:00:39;;;;;;;6.73;1.60;;;7.60;99.90;;;;;;6188036;23;20429;-63
2023/11/24 01:03:06;;;;;;;6.70;1.30;;;7.60;99.90;;;;;;6188495;23;20405;-63
2023/11/24 01:05:33;;;;;;;7.70;1.80;;;7.60;99.90;;;;;;6188463;23;20405;-63
2023/11/24 01:08:00;;;;;;;12.50;1.83;;;7.60;99.90;;;;;;6187928;23;20409;-62
2023/11/24 01:10:28;;;;;;;12.90;1.93;;;7.60;99.90;;;;;;6187991;23;20473;-63
2023/11/24 01:12:58;;;;;;;12.07;1.73;;;7.60;99.90;;;;;;6188395;23;20444;-62
2023/11/24 01:15:25;;;;;;;6.37;1.40;;;7.60;99.90;;;;;;6189006;23;20852;-61
2023/11/24 01:17:54;;;;;;;4.27;1.60;;;7.60;99.90;;;;;;6188308;23;20440;-61
2023/11/24 01:20:21;;;;;;;8.53;1.67;;;7.60;99.90;;;;;;6188283;23;20443;-63
2023/11/24 01:22:49;;;;;;;5.30;2.03;;;7.60;99.90;;;;;;6187813;23;20416;-61
2023/11/24 01:25:16;;;;;;;9.23;2.50;;;7.50;99.90;;;;;;6187972;23;20411;-63
2023/11/24 01:27:43;;;;;;;7.23;1.23;;;7.50;99.90;;;;;;6188304;23;20401;-61
2023/11/24 01:30:13;;;;;;;11.80;2.07;;;7.50;99.90;;;;;;6188153;23;20491;-61
2023/11/24 01:32:40;;;;;;;8.73;1.80;;;7.40;99.90;;;;;;6188095;23;20429;-62
2023/11/24 01:35:08;;;;;;;3.73;1.87;;;7.50;99.90;;;;;;6187992;23;20496;-62
2023/11/24 01:37:35;;;;;;;5.90;1.03;;;7.40;99.90;;;;;;6188390;23;20448;-61
2023/11/24 01:40:03;;;;;;;6.73;1.37;;;7.50;99.90;;;;;;6188194;23;20419;-61
2023/11/24 01:42:30;;;;;;;10.53;2.03;;;7.50;99.90;;;;;;6188062;23;20457;-62
2023/11/24 01:44:57;;;;;;;33.53;2.63;;;7.40;99.90;;;;;;6187741;23;20400;-60
2023/11/24 01:47:25;;;;;;;9.13;1.60;;;7.40;99.90;;;;;;6187673;23;20504;-64
2023/11/24 01:49:52;;;;;;;5.50;1.73;;;7.40;99.90;;;;;;6187728;23;20846;-61
2023/11/24 01:52:20;;;;;;;18.83;9.17;;;7.40;99.90;;;;;;6187966;23;20495;-60
2023/11/24 01:54:48;;;;;;;5.00;1.23;;;7.40;99.90;;;;;;6187680;23;20405;-61
2023/11/24 01:57:16;;;;;;;11.27;1.87;;;7.40;99.90;;;;;;6187940;23;20441;-62
2023/11/24 01:59:43;;;;;;;4.80;1.67;;;7.00;99.90;;;;;;6187564;23;20405;-62
2023/11/24 02:02:10;;;;;;;2.07;1.50;;;6.70;99.90;;;;;;6187837;23;20463;-62
2023/11/24 02:04:38;;;;;;;2.73;1.20;;;6.40;99.90;;;;;;6187553;23;20931;-61
2023/11/24 02:07:06;;;;;;;1.10;0.70;;;6.10;99.90;;;;;;6187471;23;20428;-63
2023/11/24 02:09:34;;;;;;;8.27;2.33;;;5.90;99.90;;;;;;6187601;23;20441;-62
2023/11/24 02:12:01;;;;;;;1.40;0.60;;;5.70;99.90;;;;;;6187413;23;20428;-62
2023/11/24 02:14:29;;;;;;;2.80;0.80;;;5.60;99.90;;;;;;6188839;23;20401;-62
2023/11/24 02:16:56;;;;;;;2.80;0.50;;;5.60;99.90;;;;;;6187686;23;20431;-63
2023/11/24 02:19:23;;;;;;;2.17;1.30;;;5.50;99.90;;;;;;6187915;23;20382;-63
2023/11/24 02:21:51;;;;;;;1.00;0.70;;;5.40;99.90;;;;;;6187728;23;20401;-64
2023/11/24 02:24:20;;;;;;;4.07;1.00;;;5.30;99.90;;;;;;6188449;23;20385;-61
2023/11/24 02:26:47;;;;;;;1.43;0.60;;;5.30;99.90;;;;;;6187656;23;20511;-62
2023/11/24 02:29:14;;;;;;;2.70;0.97;;;5.20;99.90;;;;;;6187342;23;20476;-63
2023/11/24 02:31:40;;;;;;;7.47;1.20;;;5.20;99.90;;;;;;6187779;23;20404;-62
2023/11/24 02:34:08;;;;;;;1.20;0.73;;;5.20;99.90;;;;;;6187658;23;20415;-62
2023/11/24 02:36:37;;;;;;;1.20;0.70;;;5.20;99.90;;;;;;6187346;23;20844;-62
2023/11/24 02:39:05;;;;;;;8.67;1.03;;;5.20;99.90;;;;;;6187710;23;20478;-62
2023/11/24 02:41:33;;;;;;;4.97;1.50;;;5.20;99.90;;;;;;6187707;23;20396;-64
2023/11/24 02:44:00;;;;;;;5.03;1.00;;;5.20;99.90;;;;;;6187457;23;20444;-64
2023/11/24 02:46:27;;;;;;;4.63;1.23;;;5.20;99.90;;;;;;6187703;23;20409;-62
2023/11/24 02:48:53;;;;;;;2.70;0.90;;;5.20;99.90;;;;;;6187259;23;20758;-63
2023/11/24 02:51:20;;;;;;;2.30;1.40;;;5.10;99.90;;;;;;6187585;23;20532;-62
2023/11/24 02:53:48;;;;;;;3.53;1.30;;;5.20;99.90;;;;;;6187259;23;20943;-62
2023/11/24 02:56:14;;;;;;;14.93;1.17;;;5.20;99.90;;;;;;6187655;23;20487;-64
2023/11/24 02:58:43;;;;;;;5.63;1.77;;;5.20;99.90;;;;;;6187089;23;20512;-61
2023/11/24 03:01:10;;;;;;;8.10;1.80;;;5.20;99.90;;;;;;6187227;23;20989;-62
2023/11/24 03:03:37;;;;;;;3.67;1.07;;;5.20;99.90;;;;;;6187151;23;20511;-63
2023/11/24 03:06:05;;;;;;;5.10;2.03;;;5.30;99.90;;;;;;6187146;23;20400;-61
2023/11/24 03:08:32;;;;;;;3.27;1.03;;;5.30;99.90;;;;;;6187300;23;20443;-63
2023/11/24 03:11:00;;;;;;;5.40;0.90;;;5.20;99.90;;;;;;6187095;23;20965;-62
2023/11/24 03:13:27;;;;;;;8.00;1.63;;;5.20;99.90;;;;;;6187508;23;20769;-62
2023/11/24 03:15:55;;;;;;;4.00;1.10;;;5.20;99.90;;;;;;6188199;23;20424;-63
2023/11/24 03:18:23;;;;;;;4.90;1.40;;;5.30;99.90;;;;;;6187366;23;20460;-61
2023/11/24 03:20:50;;;;;;;2.50;1.33;;;5.30;99.90;;;;;;6187509;23;20401;-61
2023/11/24 03:23:17;;;;;;;3.43;2.03;;;5.30;99.90;;;;;;6187458;23;20425;-62
2023/11/24 03:25:44;;;;;;;16.77;2.23;;;5.30;99.90;;;;;;6187399;23;20870;-60
2023/11/24 03:28:12;;;;;;;5.93;2.10;;;5.30;99.90;;;;;;6187415;23;20797;-61
2023/11/24 03:30:39;;;;;;;4.20;1.53;;;5.30;99.90;;;;;;6187075;23;20469;-63
2023/11/24 03:33:07;;;;;;;6.73;1.57;;;5.30;99.90;;;;;;6187380;23;20460;-59
2023/11/24 03:35:34;;;;;;;1.63;0.93;;;5.40;99.90;;;;;;6187044;23;20915;-61
2023/11/24 03:38:01;;;;;;;4.43;1.60;;;5.40;99.90;;;;;;6187377;23;20508;-62
2023/11/24 03:40:28;;;;;;;7.67;1.13;;;5.40;99.90;;;;;;6187496;23;20417;-63
2023/11/24 03:42:55;;;;;;;15.13;1.50;;;5.40;99.90;;;;;;6187323;23;20476;-62
2023/11/24 03:45:22;;;;;;;6.53;2.67;;;5.40;99.90;;;;;;6187516;23;20396;-63
2023/11/24 03:47:49;;;;;;;5.50;1.70;;;5.50;99.90;;;;;;6189095;23;20451;-61
2023/11/24 03:50:18;;;;;;;2.13;1.40;;;5.50;99.90;;;;;;6189196;23;20456;-62
2023/11/24 03:52:45;;;;;;;2.70;1.20;;;5.70;99.90;;;;;;6190106;23;20428;-62
2023/11/24 03:55:12;;;;;;;6.93;1.80;;;5.70;99.90;;;;;;6188795;23;20400;-62
2023/11/24 03:57:39;;;;;;;8.83;1.67;;;5.80;99.90;;;;;;6188898;23;20706;-63
2023/11/24 04:00:08;;;;;;;4.13;0.90;;;5.70;99.90;;;;;;6188756;23;20436;-62
2023/11/24 04:02:35;;;;;;;15.63;1.33;;;5.70;99.90;;;;;;6189071;23;20703;-62
2023/11/24 04:05:02;;;;;;;3.97;1.53;;;5.70;99.90;;;;;;6189059;23;20424;-63
2023/11/24 04:07:30;;;;;;;3.90;1.63;;;5.70;99.90;;;;;;6188829;23;20903;-64
2023/11/24 04:09:58;;;;;;;7.87;1.90;;;5.70;99.90;;;;;;6188450;23;20983;-61
2023/11/24 04:12:25;;;;;;;5.83;2.07;;;5.70;99.90;;;;;;6188612;23;20405;-62
2023/11/24 04:14:52;;;;;;;3.20;1.30;;;5.70;99.90;;;;;;6188959;23;20879;-62
2023/11/24 04:17:19;;;;;;;6.60;2.67;;;5.70;99.90;;;;;;6189025;23;20409;-63
2023/11/24 04:19:46;;;;;;;13.60;2.23;;;5.70;99.90;;;;;;6188450;23;20440;-63
2023/11/24 04:22:13;;;;;;;4.20;1.10;;;5.80;99.90;;;;;;6188970;23;20477;-64
2023/11/24 04:24:41;;;;;;;8.87;1.30;;;5.80;99.90;;;;;;6188867;23;20436;-62
2023/11/24 04:27:08;;;;;;;5.47;1.97;;;5.70;99.90;;;;;;6188515;23;20441;-64
2023/11/24 04:29:36;;;;;;;9.07;2.33;;;5.70;99.90;;;;;;6188946;23;20531;-62
2023/11/24 04:32:02;;;;;;;4.27;1.43;;;5.60;99.90;;;;;;6188753;23;20484;-64
2023/11/24 04:34:29;;;;;;;3.83;0.93;;;5.60;99.90;;;;;;6188711;23;20895;-63
2023/11/24 04:36:56;;;;;;;7.17;1.13;;;5.60;99.90;;;;;;6189461;23;20910;-64
2023/11/24 04:39:24;;;;;;;6.60;1.60;;;5.50;99.90;;;;;;6188638;23;20445;-62
2023/11/24 04:41:52;;;;;;;19.47;1.93;;;5.60;99.90;;;;;;6188811;23;20496;-62
2023/11/24 04:44:20;;;;;;;9.13;1.00;;;5.60;99.90;;;;;;6188561;23;20519;-63
2023/11/24 04:46:47;;;;;;;10.03;1.43;;;5.60;99.90;;;;;;6188719;23;20864;-63
2023/11/24 04:49:13;;;;;;;5.07;1.33;;;5.60;99.90;;;;;;6188211;23;20484;-63
2023/11/24 04:51:40;;;;;;;4.20;1.03;;;5.60;99.90;;;;;;6188209;23;20958;-63
2023/11/24 04:54:07;;;;;;;4.70;1.57;;;5.60;99.90;;;;;;6188441;23;20425;-65
2023/11/24 04:56:35;;;;;;;1.93;1.10;;;5.60;99.90;;;;;;6188631;23;20401;-63
2023/11/24 04:59:04;;;;;;;4.60;0.80;;;5.60;99.90;;;;;;6188732;23;20457;-63
2023/11/24 05:01:31;;;;;;;2.80;1.00;;;5.60;99.90;;;;;;6188470;23;20385;-62
2023/11/24 05:03:59;;;;;;;3.07;1.20;;;5.50;99.90;;;;;;6189418;23;20740;-62
2023/11/24 05:06:26;;;;;;;7.60;1.10;;;5.50;99.90;;;;;;6188184;23;20480;-63
2023/11/24 05:08:53;;;;;;;4.83;1.00;;;5.40;99.90;;;;;;6188320;23;20445;-63
2023/11/24 05:11:21;;;;;;;1.20;0.77;;;5.30;99.90;;;;;;6188063;23;20421;-64
2023/11/24 05:13:49;;;;;;;3.10;1.00;;;5.20;99.90;;;;;;6189436;23;20484;-62
2023/11/24 05:16:17;;;;;;;10.13;1.13;;;5.20;99.90;;;;;;6188532;23;20396;-60
2023/11/24 05:18:44;;;;;;;3.90;1.27;;;5.20;99.90;;;;;;6188422;23;20681;-63
2023/11/24 05:21:11;;;;;;;10.00;1.60;;;5.20;99.90;;;;;;6188332;23;20392;-62
2023/11/24 05:23:38;;;;;;;1.53;0.70;;;5.20;99.90;;;;;;6188097;23;20910;-63
2023/11/24 05:26:06;;;;;;;8.07;1.10;;;5.20;99.90;;;;;;6188590;23;20401;-62
2023/11/24 05:28:33;;;;;;;2.60;0.60;;;5.20;99.90;;;;;;6188319;23;20459;-64
2023/11/24 05:31:00;;;;;;;2.33;0.60;;;5.10;99.90;;;;;;6188182;23;20523;-62
2023/11/24 05:33:28;;;;;;;4.63;1.30;;;5.20;99.90;;;;;;6188277;23;20496;-62
2023/11/24 05:35:56;;;;;;;3.10;1.10;;;5.10;99.90;;;;;;6188106;23;20437;-62
2023/11/24 05:38:23;;;;;;;10.70;1.50;;;5.20;99.90;;;;;;6188441;23;20879;-62
2023/11/24 05:40:50;;;;;;;3.07;1.33;;;5.20;99.90;;;;;;6189164;23;20397;-61
2023/11/24 05:43:17;;;;;;;2.87;1.37;;;5.20;99.90;;;;;;6187876;23;20492;-62
2023/11/24 05:45:47;;;;;;;2.13;1.00;;;5.20;99.90;;;;;;6188127;23;20440;-63
2023/11/24 05:48:13;;;;;;;1.50;1.10;;;5.20;99.90;;;;;;6187724;23;20946;-63
2023/11/24 05:50:42;;;;;;;4.77;1.63;;;5.20;99.90;;;;;;6187702;23;20487;-66
2023/11/24 05:53:08;;;;;;;4.17;0.83;;;5.20;99.90;;;;;;6188206;23;20443;-62
2023/11/24 05:55:35;;;;;;;3.17;1.07;;;5.20;99.90;;;;;;6187682;23;20947;-63
2023/11/24 05:58:05;;;;;;;7.83;1.43;;;5.20;99.90;;;;;;6188251;23;20452;-63
2023/11/24 06:00:32;;;;;;;3.73;1.43;;;5.20;99.90;;;;;;6187908;23;20447;-63
2023/11/24 06:02:59;;;;;;;6.20;1.13;;;5.20;99.90;;;;;;6187937;23;20758;-63
2023/11/24 06:05:27;;;;;;;8.50;0.90;;;5.20;99.90;;;;;;6188254;23;20432;-61
2023/11/24 06:07:57;;;;;;;2.10;1.90;;;5.20;99.90;;;;;;6187539;23;20444;-63
2023/11/24 06:10:24;;;;;;;6.50;1.13;;;5.20;99.90;;;;;;6187902;23;20444;-63
2023/11/24 06:12:51;;;;;;;1.83;1.50;;;5.20;99.90;;;;;;6187877;23;20496;-62
2023/11/24 06:15:18;;;;;;;4.10;1.00;;;5.30;99.90;;;;;;6187807;23;20716;-62
2023/11/24 06:17:45;;;;;;;7.27;1.47;;;5.30;99.90;;;;;;6187993;23;20725;-63
2023/11/24 06:20:12;;;;;;;3.67;1.27;;;5.40;99.90;;;;;;6187349;23;20756;-64
2023/11/24 06:22:39;;;;;;;2.00;1.23;;;5.40;99.90;;;;;;6187538;23;20428;-63
2023/11/24 06:25:10;;;;;;;1.67;0.83;;;5.40;99.90;;;;;;6187776;23;20499;-62
2023/11/24 06:27:37;;;;;;;3.87;1.30;;;5.40;99.90;;;;;;6187637;23;20882;-62
2023/11/24 06:30:06;;;;;;;2.73;1.63;;;5.50;99.90;;;;;;6187342;23;20413;-61
2023/11/24 06:32:33;;;;;;;5.13;1.27;;;5.50;99.90;;;;;;6187293;23;20483;-63
2023/11/24 06:35:01;;;;;;;3.90;0.70;;;5.50;99.90;;;;;;6187308;23;20493;-63
2023/11/24 06:37:28;;;;;;;2.50;1.00;;;5.50;99.90;;;;;;6187820;23;20456;-64
2023/11/24 06:39:55;;;;;;;5.23;2.10;;;5.50;99.90;;;;;;6187959;23;20907;-61
2023/11/24 06:42:23;;;;;;;1.10;0.60;;;5.40;99.90;;;;;;6187329;23;20401;-64
2023/11/24 06:44:50;;;;;;;4.80;1.37;;;5.50;99.90;;;;;;6187325;23;20959;-62
2023/11/24 06:47:16;;;;;;;4.80;1.40;;;5.50;99.90;;;;;;6187307;23;20484;-63
2023/11/24 06:49:43;;;;;;;3.53;1.33;;;5.50;99.90;;;;;;6187362;23;20479;-62
2023/11/24 06:52:10;;;;;;;4.50;1.20;;;5.50;99.90;;;;;;6187166;23;20468;-62
2023/11/24 06:54:37;;;;;;;7.17;1.77;;;5.60;99.90;;;;;;6187285;23;20437;-62
2023/11/24 06:57:04;;;;;;;6.47;1.73;;;5.60;99.90;;;;;;6187167;23;20433;-61
2023/11/24 06:59:32;;;;;;;2.60;1.30;;;5.50;99.90;;;;;;6187204;23;20404;-61
2023/11/24 07:01:59;;;;;;;3.50;1.47;;;5.60;99.90;;;;;;6187461;23;20425;-62
2023/11/24 07:04:26;;;;;;;5.80;1.80;;;5.60;99.90;;;;;;6187579;23;20429;-63
2023/11/24 07:06:53;;;;;;;2.50;1.13;;;5.60;99.90;;;;;;6187104;23;20435;-64
2023/11/24 07:09:21;;;;;;;6.97;1.60;;;5.60;99.90;;;;;;6187032;23;20495;-62
2023/11/24 07:11:48;;;;;;;7.50;2.30;;;5.70;99.90;;;;;;6187043;23;20440;-63
2023/11/24 07:14:16;;;;;;;1.80;1.07;;;5.70;99.90;;;;;;6187188;23;20445;-63
2023/11/24 07:16:44;;;;;;;7.53;2.90;;;5.70;99.90;;;;;;6195479;23;20416;-53
2023/11/24 07:19:11;;;;;;;4.10;1.67;;;5.60;99.90;;;;;;6214440;23;20385;-54
2023/11/24 07:21:38;;;;;;;11.80;1.30;;;5.60;99.90;;;;;;6215846;23;20396;-58
2023/11/24 07:24:06;;;;;;;2.80;1.40;;;5.60;99.90;;;;;;6216337;23;20385;-56
2023/11/24 07:26:33;;;;;;;7.53;1.43;;;5.50;99.90;;;;;;6216135;23;20409;-54
2023/11/24 07:29:00;;;;;;;6.03;1.50;;;5.50;99.90;;;;;;6216131;23;20388;-58
2023/11/24 07:31:28;;;;;;;2.90;1.00;;;5.50;99.90;;;;;;6216023;23;20448;-52
2023/11/24 07:33:56;;;;;;;2.03;1.07;;;5.50;99.90;;;;;;6216080;23;20400;-58
2023/11/24 07:36:25;;;;;;;2.20;1.20;;;5.50;99.90;;;;;;6215889;23;20401;-55
2023/11/24 07:38:57;;;;;;;9.30;2.07;;;5.50;99.90;;;;;;6216069;23;20369;-50
2023/11/24 07:41:27;;;;;;;2.70;1.07;;;5.50;99.90;;;;;;6215945;23;20424;-57
2023/11/24 07:43:54;;;;;;;6.30;0.93;;;5.50;99.90;;;;;;6216107;23;20369;-53
2023/11/24 07:46:21;;;;;;;9.50;1.60;;;5.50;99.90;;;;;;6215960;23;20401;-55
2023/11/24 07:48:48;;;;;;;5.33;1.30;;;5.50;99.90;;;;;;6215881;23;20389;-57
2023/11/24 07:51:16;;;;;;;1.73;1.30;;;5.40;99.90;;;;;;6215699;23;20437;-57
2023/11/24 07:53:43;;;;;;;3.40;1.60;;;5.40;99.90;;;;;;6215983;23;20361;-53
2023/11/24 07:56:10;;;;;;;3.53;1.67;;;5.30;99.90;;;;;;6215768;23;20420;-58
2023/11/24 07:58:38;;;;;;;2.60;1.17;;;5.30;99.90;;;;;;6215859;23;20445;-56
2023/11/24 08:01:06;;;;;;;7.00;1.57;;;5.40;99.90;;;;;;6215741;23;20381;-57
2023/11/24 08:03:34;;;;;;;5.37;0.90;;;5.40;99.90;;;;;;6215695;23;20396;-55
2023/11/24 08:06:06;;;;;;;1.30;0.70;;;5.30;99.90;;;;;;6215606;23;20381;-58
2023/11/24 08:08:35;;;;;;;2.40;1.00;;;5.40;99.90;;;;;;6215734;23;20410;-53
2023/11/24 08:11:02;;;;;;;9.17;1.57;;;5.40;99.90;;;;;;6215696;23;20381;-60
2023/11/24 08:13:32;;;;;;;2.83;1.40;;;5.50;99.90;;;;;;6215728;23;20392;-57
2023/11/24 08:16:00;;;;;;;6.97;1.97;;;5.40;99.90;;;;;;6215589;23;20393;-55
2023/11/24 08:18:27;;;;;;;2.23;1.10;;;5.40;99.90;;;;;;6215735;23;20380;-54
2023/11/24 08:20:54;;;;;;;6.50;1.60;;;5.40;99.90;;;;;;6215674;23;20372;-50
2023/11/24 08:23:21;;;;;;;3.00;1.60;;;5.40;99.90;;;;;;6215724;23;20390;-50
2023/11/24 08:25:50;;;;;;;4.00;1.10;;;5.40;99.90;;;;;;6215593;23;20381;-56
2023/11/24 08:28:17;;;;;;;2.53;1.13;;;5.40;99.90;;;;;;6215609;23;20400;-59
2023/11/24 08:30:44;;;;;;;6.33;1.50;;;5.50;99.90;;;;;;6215365;23;20381;-54
2023/11/24 08:33:11;;;;;;;10.23;1.47;;;5.50;99.90;;;;;;6215580;23;20420;-48
2023/11/24 08:35:39;;;;;;;5.37;1.83;;;5.60;99.90;;;;;;6215606;23;20366;-54
2023/11/24 08:38:06;;;;;;;4.90;1.27;;;5.50;99.90;;;;;;6215480;23;20428;-51
2023/11/24 08:40:33;;;;;;;4.63;1.70;;;5.50;99.90;;;;;;6215527;23;20366;-59
2023/11/24 08:43:04;;;;;;;9.07;1.47;;;5.60;99.90;;;;;;6215371;23;20401;-57
2023/11/24 08:45:31;;;;;;;8.33;2.57;;;5.70;99.90;;;;;;6215502;23;20444;-57
2023/11/24 08:47:58;;;;;;;2.90;1.13;;;5.70;99.90;;;;;;6215284;23;20425;-55
2023/11/24 08:50:25;;;;;;;4.00;1.33;;;5.70;99.90;;;;;;6215456;23;20409;-53
2023/11/24 08:52:52;;;;;;;8.43;1.43;;;5.60;99.90;;;;;;6215196;23;20444;-55
2023/11/24 08:55:20;;;;;;;3.20;1.50;;;5.70;99.90;;;;;;6215362;23;20400;-52
2023/11/24 08:57:49;;;;;;;5.30;1.60;;;5.70;99.90;;;;;;6215291;23;20417;-52
2023/11/24 09:00:18;;;;;;;8.53;1.13;;;5.70;99.90;;;;;;6215289;23;20374;-56
2023/11/24 09:02:48;;;;;;;5.80;1.77;;;5.70;99.90;;;;;;6215123;23;20504;-57
2023/11/24 09:05:16;;;;;;;6.63;1.23;;;5.70;99.90;;;;;;6215148;23;20377;-53
2023/11/24 09:07:44;;;;;;;5.27;2.07;;;5.60;99.90;;;;;;6214971;23;20432;-57
2023/11/24 09:10:12;;;;;;;2.30;1.57;;;5.70;99.90;;;;;;6215151;23;20370;-58
2023/11/24 09:12:41;;;;;;;1.90;1.07;;;5.70;99.90;;;;;;6215055;23;20462;-52
2023/11/24 09:15:10;;;;;;;3.10;1.00;;;5.60;99.90;;;;;;6215181;23;20370;-60
2023/11/24 09:17:39;;;;;;;3.17;1.60;;;5.70;99.90;;;;;;6212760;23;20429;-63
2023/11/24 09:20:09;;;;;;;9.10;1.10;;;5.80;99.90;;;;;;6211150;23;20492;-61
2023/11/24 09:22:36;;;;;;;7.90;1.77;;;5.70;99.90;;;;;;6211042;23;20433;-62
2023/11/24 09:25:04;;;;;;;6.33;1.00;;;5.80;99.90;;;;;;6189679;23;20419;-64
2023/11/24 09:27:34;;;;;;;1.97;1.53;;;5.70;99.90;;;;;;6187763;23;20424;-64
2023/11/24 09:30:04;;;;;;;3.30;2.00;;;5.70;99.90;;;;;;6187894;23;20706;-63
2023/11/24 09:32:34;;;;;;;10.43;2.10;;;5.70;99.90;;;;;;6187935;23;20531;-63
2023/11/24 09:35:07;;;;;;;5.60;1.00;;;5.70;99.90;;;;;;6187819;23;20392;-64
2023/11/24 09:37:35;;;;;;;5.83;0.80;;;5.70;99.90;;;;;;6188103;23;20435;-63
2023/11/24 09:40:04;;;;;;;8.43;1.37;;;5.70;99.90;;;;;;6187934;23;20370;-63
2023/11/24 09:42:39;;;;;;;4.80;1.23;;;5.80;99.90;;;;;;6187342;23;20884;-64
2023/11/24 09:45:14;;;;;;;3.90;1.37;;;5.80;99.90;;;;;;6188080;23;20396;-63
2023/11/24 09:47:43;;;;;;;4.30;0.93;;;5.80;99.90;;;;;;6187699;23;20460;-65
2023/11/24 09:50:14;;;;;;;6.03;1.67;;;5.80;99.90;;;;;;6188222;23;20487;-62
2023/11/24 09:52:45;;;;;;;5.60;1.60;;;5.70;99.90;;;;;;6187498;23;20535;-63
2023/11/24 09:55:12;;;;;;;5.97;1.60;;;5.60;99.90;;;;;;6187654;23;20396;-64
2023/11/24 09:57:41;;;;;;;4.67;2.40;;;5.60;99.90;;;;;;6187616;23;20867;-63
2023/11/24 10:00:10;;;;;;;2.17;1.10;;;5.60;99.90;;;;;;6188053;23;20732;-64
2023/11/24 10:02:40;;;;;;;9.93;1.33;;;5.60;99.90;;;;;;6187368;23;20428;-63
2023/11/24 10:05:08;;;;;;;5.13;1.20;;;5.60;99.90;;;;;;6187577;23;20389;-62
2023/11/24 10:07:37;;;;;;;2.83;0.93;;;5.70;99.90;;;;;;6187331;23;20409;-63
2023/11/24 10:10:05;;;;;;;5.23;1.23;;;5.70;99.90;;;;;;6187511;23;20472;-63
2023/11/24 10:12:33;;;;;;;4.27;1.23;;;5.70;99.90;;;;;;6187343;23;20499;-63
2023/11/24 10:15:01;;;;;;;14.63;1.20;;;5.70;99.90;;;;;;6187686;23;20405;-63
2023/11/24 10:17:32;;;;;;;4.80;2.83;;;5.70;99.90;;;;;;6187514;23;20409;-62
2023/11/24 10:20:10;;;;;;;3.43;1.10;;;5.80;99.90;;;;;;6187409;23;20389;-62
2023/11/24 10:22:39;;;;;;;5.83;1.40;;;5.80;99.90;;;;;;6187797;23;20392;-63
2023/11/24 10:25:10;;;;;;;4.20;1.27;;;5.80;99.90;;;;;;6187762;23;20401;-62
2023/11/24 10:27:40;;;;;;;6.83;1.00;;;5.80;99.90;;;;;;6187441;23;20428;-63
2023/11/24 10:30:08;;;;;;;3.93;1.30;;;5.80;99.90;;;;;;6187742;23;20405;-62
2023/11/24 10:32:35;;;;;;;1.90;0.93;;;5.90;99.90;;;;;;6187245;23;20436;-63
2023/11/24 10:35:02;;;;;;;7.23;1.00;;;6.00;99.90;;;;;;6187323;23;20400;-62
2023/11/24 10:37:29;;;;;;;7.37;2.10;;;6.10;99.90;;;;;;6187361;23;20753;-63
2023/11/24 10:40:00;;;;;;;6.93;1.70;;;6.00;99.90;;;;;;6187289;23;20838;-63
2023/11/24 10:42:33;;;;;;;10.53;1.27;;;6.10;99.90;;;;;;6187352;23;20397;-62
2023/11/24 10:45:06;;;;;;;10.73;1.67;;;6.10;99.90;;;;;;6187722;23;20837;-64
2023/11/24 10:47:38;;;;;;;2.70;0.70;;;6.00;99.90;;;;;;6187237;23;20417;-64
2023/11/24 10:50:12;;;;;;;12.70;1.27;;;6.00;99.90;;;;;;6187644;23;20389;-63
2023/11/24 10:52:48;;;;;;;0.87;0.57;;;6.10;99.90;;;;;;6187631;23;20503;-63
2023/11/24 10:55:17;;;;;;;7.43;1.20;;;6.10;99.90;;;;;;6189520;23;20384;-65
2023/11/24 10:57:47;;;;;;;4.70;1.33;;;6.10;99.90;;;;;;6190532;23;20455;-61
2023/11/24 11:00:19;;;;;;;2.23;0.73;;;6.20;99.90;;;;;;6190594;23;20389;-60
2023/11/24 11:02:47;;;;;;;0.97;0.70;;;6.20;99.90;;;;;;6190460;23;20421;-63
2023/11/24 11:05:24;;;;;;;4.00;2.00;;;6.20;99.90;;;;;;6190644;23;20439;-65
2023/11/24 11:07:58;;;;;;;5.03;1.17;;;6.20;99.90;;;;;;6190644;23;20419;-62
2023/11/24 11:10:31;;;;;;;3.53;1.17;;;6.00;99.90;;;;;;6190382;23;20401;-64
2023/11/24 11:13:00;;;;;;;4.93;1.10;;;6.00;99.90;;;;;;6190376;23;20424;-63
2023/11/24 11:15:29;;;;;;;3.30;1.33;;;6.00;99.90;;;;;;6190358;23;20400;-62
2023/11/24 11:18:14;;;;;;;2.03;1.40;;;6.10;99.90;;;;;;6190287;23;20416;-61
2023/11/24 11:20:42;;;;;;;4.67;1.10;;;6.10;99.90;;;;;;6190362;23;20392;-62
2023/11/24 11:23:10;;;;;;;5.73;1.60;;;6.20;99.90;;;;;;6190341;23;20401;-63
2023/11/24 11:25:42;;;;;;;3.80;1.80;;;6.20;99.90;;;;;;6190421;23;20467;-64
2023/11/24 11:28:42;;;;;;;1.73;0.90;;;6.20;99.90;;;;;;6190430;23;20395;-62
2023/11/24 11:31:23;;;;;;;5.90;1.03;;;6.20;99.90;;;;;;6042526;23;20413;-63
2023/11/24 11:33:51;;;;;;;4.50;0.90;;;6.20;99.90;;;;;;6173152;23;20511;-61
2023/11/24 11:36:20;;;;;;;2.40;1.57;;;6.30;99.90;;;;;;6190826;23;20747;-63
2023/11/24 11:38:54;;;;;;;3.47;1.80;;;6.30;99.90;;;;;;6190227;23;20423;-62
2023/11/24 11:41:44;;;;;;;7.43;1.23;;;6.20;99.90;;;;;;6190400;23;20396;-62
2023/11/24 11:44:19;;;;;;;2.20;1.13;;;6.20;99.90;;;;;;6190719;23;20433;-62
2023/11/24 11:47:10;;;;;;;5.13;1.20;;;6.40;99.90;;;;;;6190342;23;20391;-63
2023/11/24 11:49:40;;;;;;;7.93;1.27;;;6.50;99.90;;;;;;6190667;23;20432;-61
2023/11/24 11:52:10;;;;;;;3.47;0.80;;;6.50;99.90;;;;;;6191234;23;20873;-63
2023/11/24 11:54:39;;;;;;;1.33;0.60;;;6.40;99.90;;;;;;6190238;23;20437;-64
2023/11/24 11:57:08;;;;;;;1.27;0.60;;;6.40;99.90;;;;;;6190497;23;20495;-64
2023/11/24 11:59:36;;;;;;;2.17;1.03;;;6.40;99.90;;;;;;6190542;23;20425;-63
2023/11/24 12:02:06;;;;;;;5.13;1.10;;;6.50;99.90;;;;;;6190214;23;20412;-62
2023/11/24 12:04:35;;;;;;;8.93;1.50;;;6.50;99.90;;;;;;6190137;23;20429;-62
2023/11/24 12:07:07;;;;;;;1.30;0.93;;;6.60;99.90;;;;;;6188592;23;20471;-64
2023/11/24 12:09:35;;;;;;;1.70;0.80;;;6.60;99.90;;;;;;6188494;23;20523;-62
2023/11/24 12:12:02;;;;;;;5.23;0.93;;;6.50;99.90;;;;;;6189019;23;20399;-61
2023/11/24 12:14:32;;;;;;;4.03;1.47;;;6.40;99.90;;;;;;6188896;23;20498;-63
2023/11/24 12:16:59;;;;;;;6.67;1.10;;;6.40;99.90;;;;;;6188631;23;20393;-63
2023/11/24 12:19:30;;;;;;;5.50;1.30;;;6.30;99.90;;;;;;6188429;23;20745;-62
2023/11/24 12:22:00;;;;;;;5.83;0.70;;;6.30;99.90;;;;;;6189029;23;20657;-64
2023/11/24 12:24:29;;;;;;;5.03;1.70;;;6.20;99.90;;;;;;6188472;23;20425;-63
2023/11/24 12:26:57;;;;;;;5.90;1.53;;;6.20;99.90;;;;;;6188862;23;20697;-63
2023/11/24 12:29:26;;;;;;;2.50;1.50;;;6.30;99.90;;;;;;6188285;23;20482;-63
2023/11/24 12:31:56;;;;;;;10.70;2.30;;;6.30;99.90;;;;;;6188536;23;20389;-62
2023/11/24 12:34:24;;;;;;;7.13;1.30;;;6.30;99.90;;;;;;6188256;23;20919;-63
2023/11/24 12:36:54;;;;;;;4.47;1.30;;;6.30;99.90;;;;;;6188931;23;20385;-62
2023/11/24 12:39:25;;;;;;;6.47;1.60;;;6.40;99.90;;;;;;6188280;23;20401;-61
2023/11/24 12:41:55;;;;;;;2.27;1.10;;;6.50;99.90;;;;;;6188485;23;20840;-61
2023/11/24 12:44:34;;;;;;;8.20;1.10;;;6.60;99.90;;;;;;6189020;23;20413;-63
2023/11/24 12:47:13;;;;;;;2.17;0.97;;;6.50;99.90;;;;;;6188719;23;20393;-62
2023/11/24 12:50:00;;;;;;;7.20;1.63;;;6.50;99.90;;;;;;6188230;23;20816;-62
2023/11/24 12:52:29;;;;;;;3.13;1.53;;;6.50;99.90;;;;;;6189215;23;20834;-62
2023/11/24 12:54:56;;;;;;;5.90;1.30;;;6.40;99.90;;;;;;6188484;23;20475;-65
2023/11/24 12:57:23;;;;;;;12.30;0.90;;;6.40;99.90;;;;;;6189194;23;20392;-63
2023/11/24 12:59:50;;;;;;;2.20;1.10;;;6.30;99.90;;;;;;6188397;23;20455;-62
2023/11/24 13:02:19;;;;;;;2.03;0.80;;;6.30;99.90;;;;;;6188178;23;20420;-63